Putnam Valley, NY (10579)

6:59 PM EDT on May 28, 2015 (GMT -0400)
Roaring Brook Lake | | Change Station
CLOSE
Current Station
Personal Weather Station
Location: Putnam Valley, NY
Elevation: 968 ft
Nearby Weather Stations

Elev 968 ft 41.43 °N, 73.81 °W | Updated 14 minutes ago

Partly Cloudy
Partly Cloudy
72.3 °F
Feels Like 71 °F
N
0.0
Wind Variable Wind from North
Gusts 0.0 mph

Today
High -- | Low -- °F
--% Chance of Precip.
Yesterday
High -- | Low -- °F
Precip. -- in
5:26 AM 8:19 PM
Waxing Gibbous, 79% visible
Pressure 30.16 in
Visibility 15.0 miles
Clouds Few 2000 ft
Heat Index 71 °F
Dew Point 68 °F
Humidity 86%
Rainfall 0.00 in
Snow Depth Not available.
UV 1 out of 12
Pollen 9.50 out of 12
Air Quality Not available.
Flu Activity Widespread
METAR KSWF 282245Z 30010G15KT 15SM FEW020 27/15 A3016

More Conditions Fewer Conditions

Pressure 30.16 in
Visibility 15.0 miles
Clouds Few 2000 ft
Heat Index 71 °F
Dew Point 68 °F
Humidity 86%
Rainfall 0.00 in
Snow Depth Not available.
UV 1 out of 12
Pollen 9.50 out of 12
Air Quality Not available.
Flu Activity Widespread
METAR KSWF 282245Z 30010G15KT 15SM FEW020 27/15 A3016

More Conditions Fewer Conditions

10-Day Weather Forecast

Almanac

Astronomy

May. 28, 2015 Rise Set
Actual Time
Civil Twilight
Nautical Twilight
Astronomical Twilight
Moon
Length of Visible Light
Length of Day
Tomorrow will be .
, % of the Moon is Illuminated

Today's Extremes

State Highs State Lows

Community

WunderPhotos

Upload Photos

1,825,083 photos uploaded!

WunderBlogs® & News

Nearby

Air Quality

  Air Quality AQ Index Pollutant
Not available.

Snow Depth

Station Depth Elevation

Earthquake Activity

City Distance Mag. Time & Date
Minimum magnitude displayed is 2.5.

Coastal Water Temperatures

Place Temperature

Stations

Nearby Weather Stations

Station Location Temp. Windchill Dew Point Humidity Wind Precip. Elev Updated Type